Terminal Aerodrome Forecast
Issued by NWS Wilmington, OH

Current Version | Previous Version | Text Only | Print | Product List | Glossary Off
Versions: 1 2 3 4 5 6 7 8 9 10 11 12 13 14 15 16 17 18 19 20 21 22 23 24 25 26

000
FTUS41 KILN 260653 AAA
TAFDAY
TAF AMD
KDAY 260653Z 2607/2706 24004KT P6SM FEW040
      TEMPO 2607/2609 5SM -SHRA OVC040
     FM260900 30005KT 5SM BR BKN015
     FM261400 33006KT P6SM SCT040
     FM270000 05004KT P6SM SCT250=

USA.gov is the U.S. government's official web portal to all federal, state and local government web resources and services.